createdAt,value
2023-01-17T00:02:53.911Z,5.01
2023-01-17T00:08:14.013Z,5.00
2023-01-17T00:13:15.720Z,4.98
2023-01-17T00:18:17.670Z,4.94
2023-01-17T00:23:40.809Z,4.89
2023-01-17T00:28:43.269Z,4.85
2023-01-17T00:33:45.014Z,4.83
2023-01-17T00:38:46.663Z,4.80
2023-01-17T00:44:07.156Z,4.74
2023-01-17T00:49:27.544Z,4.70
2023-01-17T00:54:48.102Z,4.67
2023-01-17T01:00:08.489Z,4.64
2023-01-17T01:05:31.063Z,4.59
2023-01-17T01:10:51.939Z,4.56
2023-01-17T01:16:12.337Z,4.55
2023-01-17T01:21:32.393Z,4.53
2023-01-17T01:26:53.321Z,4.50
2023-01-17T01:32:13.570Z,4.47
2023-01-17T01:37:15.310Z,4.42
2023-01-17T01:42:17.328Z,4.40
2023-01-17T01:47:34.269Z,4.35
2023-01-17T01:52:42.412Z,4.32
2023-01-17T01:57:47.941Z,4.31
2023-01-17T02:02:51.662Z,4.26
2023-01-17T02:08:07.642Z,4.25
2023-01-17T02:13:10.610Z,4.20
2023-01-17T02:18:43.788Z,4.15
2023-01-17T02:24:03.961Z,4.10
2023-01-17T02:29:39.698Z,4.07
2023-01-17T02:34:51.216Z,4.04
2023-01-17T02:40:02.976Z,4.02
2023-01-17T02:45:05.323Z,3.98
2023-01-17T02:50:27.870Z,3.97
2023-01-17T02:55:44.603Z,3.97
2023-01-17T03:01:04.876Z,3.94
2023-01-17T03:06:17.083Z,3.93
2023-01-17T03:11:19.230Z,3.95
2023-01-17T03:16:22.351Z,3.97
2023-01-17T03:21:24.928Z,3.98
2023-01-17T03:26:26.583Z,3.98
2023-01-17T03:31:28.295Z,3.92
2023-01-17T03:36:29.981Z,3.84
2023-01-17T03:41:32.297Z,3.67
2023-01-17T03:46:33.962Z,3.64
2023-01-17T03:51:35.638Z,3.60
2023-01-17T03:56:37.423Z,3.38
2023-01-17T04:01:39.453Z,3.36
2023-01-17T04:06:41.914Z,3.35
2023-01-17T04:11:43.597Z,3.27
2023-01-17T04:16:46.013Z,3.22
2023-01-17T04:21:47.837Z,3.41
2023-01-17T04:26:49.541Z,3.59
2023-01-17T04:31:51.459Z,3.73
2023-01-17T04:36:53.171Z,3.82
2023-01-17T04:41:55.822Z,3.82
2023-01-17T04:46:57.683Z,3.83
2023-01-17T04:51:59.556Z,3.86
2023-01-17T04:57:01.154Z,3.89
2023-01-17T05:02:02.832Z,3.92
2023-01-17T05:07:05.542Z,3.85
2023-01-17T05:12:07.191Z,3.72
2023-01-17T05:17:11.132Z,3.64
2023-01-17T05:22:16.791Z,3.55
2023-01-17T05:27:18.448Z,3.39
2023-01-17T05:32:20.103Z,3.19
2023-01-17T05:37:21.861Z,2.98
2023-01-17T05:42:23.579Z,2.75
2023-01-17T05:47:25.246Z,2.48
2023-01-17T05:52:26.981Z,2.19
2023-01-17T05:57:28.723Z,2.01
2023-01-17T06:02:30.412Z,1.73
2023-01-17T06:07:32.808Z,1.71
2023-01-17T06:12:34.890Z,1.68
2023-01-17T06:17:37.078Z,1.61
2023-01-17T06:22:39.114Z,1.76
2023-01-17T06:27:40.804Z,2.48
2023-01-17T06:32:42.642Z,2.19
2023-01-17T06:37:44.335Z,2.14
2023-01-17T06:42:46.069Z,2.06
2023-01-17T06:47:47.770Z,1.94
2023-01-17T06:53:03.807Z,1.83
2023-01-17T06:58:05.681Z,1.81
2023-01-17T07:03:16.503Z,1.74
2023-01-17T07:08:19.447Z,1.60
2023-01-17T07:13:21.151Z,1.55
2023-01-17T07:18:25.487Z,1.69
2023-01-17T07:23:27.220Z,1.80
2023-01-17T07:28:29.178Z,1.86
2023-01-17T07:33:30.774Z,1.66
2023-01-17T07:38:32.742Z,1.51
2023-01-17T07:43:35.428Z,1.61
2023-01-17T07:48:37.110Z,1.61
2023-01-17T07:53:38.765Z,1.60
2023-01-17T07:58:40.476Z,1.68
2023-01-17T08:03:42.369Z,1.69
2023-01-17T08:08:45.008Z,1.69
2023-01-17T08:13:48.267Z,1.63
2023-01-17T08:18:50.424Z,1.54
2023-01-17T08:23:52.744Z,1.62
2023-01-17T08:28:56.584Z,1.69
2023-01-17T08:33:58.436Z,1.71
2023-01-17T08:39:00.146Z,1.88
2023-01-17T08:44:02.715Z,2.02
2023-01-17T08:49:04.804Z,2.10
2023-01-17T08:54:06.663Z,2.21
2023-01-17T08:59:12.036Z,2.41
2023-01-17T09:04:14.769Z,2.64
2023-01-17T09:09:17.573Z,2.87
2023-01-17T09:14:19.410Z,3.09
2023-01-17T09:19:21.112Z,3.33
2023-01-17T09:24:22.939Z,3.54
2023-01-17T09:29:24.840Z,3.62
2023-01-17T09:34:26.759Z,3.70
2023-01-17T09:39:28.422Z,3.82
2023-01-17T09:44:42.985Z,3.92
2023-01-17T09:49:48.538Z,3.92
2023-01-17T09:54:51.443Z,4.05
2023-01-17T10:00:19.236Z,4.14
2023-01-17T10:05:55.005Z,4.30
2023-01-17T10:11:24.726Z,4.37
2023-01-17T10:16:32.295Z,4.48
2023-01-17T10:21:52.395Z,4.47
2023-01-17T10:26:56.314Z,4.53
2023-01-17T10:31:59.751Z,4.55
2023-01-17T10:37:31.028Z,4.59
2023-01-17T10:42:44.180Z,4.63
2023-01-17T10:47:51.375Z,4.61
2023-01-17T10:53:09.896Z,4.68
2023-01-17T10:58:13.154Z,4.74
2023-01-17T11:03:17.455Z,4.71
2023-01-17T11:08:21.939Z,4.67
2023-01-17T11:13:28.548Z,4.79
2023-01-17T11:18:33.320Z,4.86
2023-01-17T11:23:35.797Z,4.89
2023-01-17T11:28:41.444Z,4.98
2023-01-17T11:33:47.704Z,5.03
2023-01-17T11:39:17.439Z,5.13
2023-01-17T11:44:23.022Z,5.26
2023-01-17T11:49:25.636Z,5.32
2023-01-17T11:54:33.404Z,5.33
2023-01-17T11:59:40.113Z,5.40
2023-01-17T12:05:27.466Z,5.47
2023-01-17T12:10:52.410Z,5.43
2023-01-17T12:16:22.825Z,5.37
2023-01-17T12:21:39.790Z,5.43
2023-01-17T12:27:17.101Z,5.52
2023-01-17T12:32:31.861Z,5.52
2023-01-17T12:37:36.904Z,5.62
2023-01-17T12:42:43.818Z,5.81
2023-01-17T12:47:54.355Z,5.94
2023-01-17T12:53:02.514Z,5.90
2023-01-17T12:58:07.884Z,5.88
2023-01-17T13:03:16.843Z,5.87
2023-01-17T13:08:27.550Z,5.91
2023-01-17T13:13:31.257Z,5.85
2023-01-17T13:18:35.681Z,5.92
2023-01-17T13:23:59.301Z,5.86
2023-01-17T13:29:13.156Z,5.97
2023-01-17T13:34:47.071Z,5.97
2023-01-17T13:40:06.109Z,5.89
2023-01-17T13:45:17.623Z,5.94
2023-01-17T13:50:38.232Z,5.93
2023-01-17T13:55:53.146Z,5.88
2023-01-17T14:00:55.608Z,5.84
2023-01-17T14:05:57.349Z,5.89
2023-01-17T14:11:09.814Z,5.93
2023-01-17T14:16:20.993Z,5.89
2023-01-17T14:21:32.266Z,5.89
2023-01-17T14:26:43.147Z,5.87
2023-01-17T14:31:45.326Z,5.80
2023-01-17T14:36:47.090Z,5.73
2023-01-17T14:41:48.987Z,5.66
2023-01-17T14:46:50.899Z,5.55
2023-01-17T14:52:06.277Z,5.44
2023-01-17T14:57:15.372Z,5.35
2023-01-17T15:02:18.536Z,5.30
2023-01-17T15:07:20.479Z,5.25
2023-01-17T15:12:22.194Z,5.11
2023-01-17T15:17:24.809Z,5.05
2023-01-17T15:22:26.752Z,4.92
2023-01-17T15:27:28.638Z,4.81
2023-01-17T15:32:33.205Z,4.77
2023-01-17T15:37:37.420Z,4.80
2023-01-17T15:42:43.262Z,4.74
2023-01-17T15:47:45.078Z,4.72
2023-01-17T15:52:49.138Z,4.65
2023-01-17T15:57:50.889Z,4.60
2023-01-17T16:02:58.645Z,4.54
2023-01-17T16:08:04.196Z,4.48
2023-01-17T16:13:07.667Z,4.41
2023-01-17T16:18:24.785Z,4.36
2023-01-17T16:23:27.777Z,4.24
2023-01-17T16:28:29.480Z,4.13
2023-01-17T16:33:31.103Z,4.01
2023-01-17T16:38:32.836Z,3.88
2023-01-17T16:43:34.680Z,3.87
2023-01-17T16:48:37.471Z,3.88
2023-01-17T16:53:39.080Z,3.87
2023-01-17T16:58:41.433Z,3.76
2023-01-17T17:03:44.133Z,3.72
2023-01-17T17:08:45.892Z,3.71
2023-01-17T17:13:49.231Z,3.65
2023-01-17T17:18:58.849Z,3.52
2023-01-17T17:24:01.829Z,3.34
2023-01-17T17:29:04.782Z,3.37
2023-01-17T17:34:09.863Z,3.42
2023-01-17T17:39:14.832Z,3.50
2023-01-17T17:44:17.709Z,3.40
2023-01-17T17:49:22.179Z,3.23
2023-01-17T17:54:24.734Z,3.23
2023-01-17T17:59:26.564Z,3.26
2023-01-17T18:04:28.301Z,3.24
2023-01-17T18:09:30.419Z,3.12
2023-01-17T18:14:32.302Z,3.15
2023-01-17T18:19:33.994Z,3.22
2023-01-17T18:24:35.702Z,3.17
2023-01-17T18:29:37.480Z,3.13
2023-01-17T18:34:41.433Z,2.96
2023-01-17T18:39:43.768Z,2.91
2023-01-17T18:44:45.553Z,2.97
2023-01-17T18:49:47.362Z,2.98
2023-01-17T18:54:49.015Z,3.01
2023-01-17T18:59:50.948Z,3.08
2023-01-17T19:04:52.602Z,3.14
2023-01-17T19:09:54.310Z,3.21
2023-01-17T19:14:55.985Z,3.27
2023-01-17T19:19:57.704Z,3.36
2023-01-17T19:24:59.461Z,3.38
2023-01-17T19:30:01.134Z,3.47
2023-01-17T19:35:02.865Z,3.42
2023-01-17T19:40:05.047Z,3.24
2023-01-17T19:45:12.159Z,3.34
2023-01-17T19:50:14.838Z,3.34
2023-01-17T19:55:17.637Z,3.42
2023-01-17T20:00:20.564Z,3.42
2023-01-17T20:05:22.417Z,3.28
2023-01-17T20:10:25.131Z,3.23
2023-01-17T20:15:27.942Z,3.19
2023-01-17T20:20:32.436Z,3.12
2023-01-17T20:25:34.101Z,3.08
2023-01-17T20:30:35.778Z,3.15
2023-01-17T20:35:37.601Z,3.20
2023-01-17T20:40:39.289Z,3.26
2023-01-17T20:45:41.103Z,3.18
2023-01-17T20:50:42.837Z,3.01
2023-01-17T20:55:44.507Z,2.92
2023-01-17T21:00:46.191Z,2.98
2023-01-17T21:05:47.860Z,3.07
2023-01-17T21:10:49.980Z,3.13
2023-01-17T21:15:52.540Z,3.20
2023-01-17T21:20:54.241Z,3.23
2023-01-17T21:25:58.865Z,3.16
2023-01-17T21:31:00.710Z,3.10
2023-01-17T21:36:08.388Z,3.08
2023-01-17T21:41:10.089Z,3.01
2023-01-17T21:46:11.956Z,2.85
2023-01-17T21:51:13.859Z,2.86
2023-01-17T21:56:34.683Z,2.83
2023-01-17T22:01:36.466Z,2.78
2023-01-17T22:06:41.102Z,2.68
2023-01-17T22:11:42.748Z,2.61
2023-01-17T22:16:44.381Z,2.40
2023-01-17T22:21:46.020Z,2.36
2023-01-17T22:26:47.816Z,2.30
2023-01-17T22:31:49.517Z,2.33
2023-01-17T22:36:51.172Z,2.30
2023-01-17T22:41:52.805Z,2.30
2023-01-17T22:46:54.511Z,2.35
2023-01-17T22:51:56.230Z,2.39
2023-01-17T22:56:58.781Z,2.12
2023-01-17T23:02:00.587Z,2.13
2023-01-17T23:07:02.335Z,2.23
2023-01-17T23:12:03.937Z,2.26
2023-01-17T23:17:24.466Z,2.28
2023-01-17T23:22:28.964Z,2.27
2023-01-17T23:27:59.268Z,2.26
2023-01-17T23:33:04.002Z,2.06
2023-01-17T23:38:25.034Z,2.04
2023-01-17T23:43:26.668Z,2.09
2023-01-17T23:48:28.785Z,2.01
2023-01-17T23:53:30.522Z,1.98
2023-01-17T23:58:33.412Z,1.96
